• Join FlightAware (Why Join?)
  • Login
  • US Flag 
09:03AM EDT


 

Airport Tracker/Info


-or-


 

Live Flight TrackerFlight Track Log ✈ N618JB ✈ 15-Apr-2013 ✈ KRSW - KJFK

Flight Track Log - Related Links

Times and Time Zones

All times are in EDT time to prevent confusion due to time zone crossing. See the N618JB flight status page for this flight to view local times or setup timezone preferences in your user account.

Time Position Orientation Groundspeed Altitude Reporting Facility
EDT Latitude Longitude Course Direction KTS MPH feet Rate Location/Type
07:12AM 26.7114 -81.7258 North 292 336 6,600  Level Miami Center
07:13AM 28.1738 -81.6469 36° Northeast  Level FlightAware Approximate
07:13AM 26.7925 -81.7339 355° North 292 336 9,600  Level Miami Center
07:14AM 28.2584 -81.5763 36° Northeast  Level FlightAware Approximate
07:14AM 26.8803 -81.7283 North 292 336 10,800  Level Miami Center
07:15AM 28.3430 -81.5058 36° Northeast  Level FlightAware Approximate
07:15AM 26.9833 -81.7047 12° North 324 373 12,700  Level Miami Center
07:16AM 28.4223 -81.4277 41° Northeast  Level FlightAware Approximate
07:16AM 27.0886 -81.6786 12° North 362 417 15,000  Level Miami Center
07:17AM 28.5062 -81.3559 36° Northeast  Level FlightAware Approximate
07:17AM 27.1958 -81.6528 12° North 385 443 17,100  Level Miami Center
07:18AM 28.6047 -81.3333 North  Level FlightAware Approximate
07:18AM 27.3181 -81.6253 11° North 399 459 19,600  Level Miami Center
07:19AM 27.4189 -81.5989 13° North 404 465 21,400 1,620 Climbing Miami Center
07:20AM 27.5344 -81.5756 10° North 419 482 22,900 1,500 Climbing Miami Center
07:21AM 27.6650 -81.5436 12° North 424 488 24,500 1,320 Climbing Miami Center
07:22AM 27.7864 -81.5319 North 429 494 25,600 1,080 Climbing Miami Center
07:23AM 27.8969 -81.5342 359° North 434 499 26,700 1,020 Climbing Miami Center
07:24AM 28.0264 -81.5350 360° North 439 505 27,700 900 Climbing Miami Center
07:25AM 28.1558 -81.5308 North 457 526 28,600 900 Climbing Miami Center
07:26AM 28.2850 -81.5317 360° North 462 532 29,600 1,020 Climbing Miami Center
07:27AM 28.4186 -81.5300 North 462 532 30,700 1,020 Climbing Miami Center
07:28AM 28.4767 -81.5300 360° North 476 548 31,100 1,020 Climbing Jacksonville Center
07:29AM 28.6081 -81.5306 360° North 476 548 32,200 1,260 Climbing Jacksonville Center
07:29AM 28.6789 -81.5272 North 473 544 33,000 1,500 Climbing Jacksonville Center
07:30AM 28.7375 -81.5264 North 469 540 33,700 1,380 Climbing Jacksonville Center
07:30AM 28.7981 -81.5281 359° North 469 540 34,300 1,260 Climbing Jacksonville Center
07:31AM 28.8667 -81.5247 North 469 540 35,000 420 Climbing Jacksonville Center
07:32AM 28.9942 -81.5228 North 458 527 35,000  Level Jacksonville Center
07:33AM 29.1194 -81.5211 North 458 527 35,000  Level Jacksonville Center
07:34AM 29.2550 -81.5239 359° North 452 520 35,000  Level Jacksonville Center
07:34AM 29.2842 -81.5236 360° North 455 524 35,000  Level Jacksonville Center
07:35AM 29.3844 -81.5244 360° North 447 514 35,000  Level Jacksonville Center
07:35AM 29.4094 -81.5219 North 452 520 35,000  Level Jacksonville Center
07:36AM 29.5097 -81.5206 North 447 514 35,000  Level Jacksonville Center
07:37AM 29.6369 -81.5067 North 447 514 35,000  Level Jacksonville Center
07:38AM 29.7636 -81.4547 20° North 453 521 35,100  Climbing Jacksonville Center
07:39AM 29.8883 -81.4025 20° North 464 534 35,000 -60 Descending Jacksonville Center
07:40AM 30.0150 -81.3503 20° North 470 541 35,000  Level Jacksonville Center
07:41AM 30.1419 -81.3194 12° North 470 541 35,100 60 Climbing Jacksonville Center
07:42AM 30.2711 -81.3053 North 465 535 35,200 420 Climbing Jacksonville Center
07:43AM 30.3983 -81.2886 North 465 535 36,000 840 Climbing Jacksonville Center
07:44AM 30.5297 -81.2672 North 465 535 36,900 480 Climbing Jacksonville Center
07:45AM 30.6519 -81.2047 24° Northeast 459 528 37,000  Climbing Jacksonville Center
07:46AM 30.7722 -81.1397 25° Northeast 464 534 37,000  Level Jacksonville Center
07:47AM 30.8925 -81.0817 22° Northeast 469 540 37,000  Level Jacksonville Center
07:48AM 31.0147 -81.0189 24° Northeast 474 545 37,000  Level Jacksonville Center
07:49AM 31.1267 -80.9608 24° Northeast 479 551 37,000  Level Jacksonville Center
07:50AM 31.2489 -80.8975 24° Northeast 479 551 37,100  Climbing Jacksonville Center
07:51AM 31.3731 -80.8317 24° Northeast 474 545 37,100 -60 Level Jacksonville Center
07:52AM 31.4933 -80.7706 23° Northeast 474 545 37,000 -60 Descending Jacksonville Center
07:53AM 31.6297 -80.7014 23° Northeast 474 545 37,000  Level Jacksonville Center
07:54AM 31.7417 -80.6450 23° Northeast 479 551 37,000  Level Jacksonville Center
07:55AM 31.8781 -80.5733 24° Northeast 479 551 37,000  Level Jacksonville Center
07:56AM 31.9897 -80.5142 24° Northeast 478 550 37,000  Level Jacksonville Center
07:57AM 32.1242 -80.4469 23° Northeast 478 550 37,100  Climbing Jacksonville Center
07:58AM 32.2336 -80.3900 24° Northeast 478 550 37,000 -60 Descending Jacksonville Center
07:59AM 32.3556 -80.3228 25° Northeast 473 544 37,000  Level Jacksonville Center
08:00AM 32.4772 -80.2575 24° Northeast 473 544 37,000  Level Jacksonville Center
08:01AM 32.6033 -80.1922 24° Northeast 473 544 37,000  Level Jacksonville Center
08:02AM 32.7231 -80.1269 25° Northeast 473 544 37,000  Level Jacksonville Center
08:03AM 32.8314 -80.0322 36° Northeast 467 537 37,000  Level Jacksonville Center
08:04AM 32.9356 -79.9300 39° Northeast 475 547 37,000  Level Jacksonville Center
08:05AM 33.0419 -79.8347 37° Northeast 480 552 37,000  Level Jacksonville Center
08:06AM 33.1500 -79.7319 39° Northeast 485 558 37,000  Level Jacksonville Center
08:07AM 33.2558 -79.6311 39° Northeast 485 558 37,000  Level Jacksonville Center
08:08AM 33.3639 -79.5278 39° Northeast 485 558 37,000  Level Jacksonville Center
08:09AM 33.4697 -79.4292 38° Northeast 480 552 37,000  Level Jacksonville Center
08:10AM 33.5753 -79.3278 39° Northeast 485 558 37,000  Level Jacksonville Center
08:11AM 33.6808 -79.2261 39° Northeast 485 558 37,000  Level Jacksonville Center
08:12AM 33.7803 -79.1322 38° Northeast 471 542 37,000  Level Jacksonville Center
08:14AM 33.9875 -78.9328 39° Northeast 473 544 37,000  Level Washington Center
08:15AM 34.0925 -78.8317 39° Northeast 473 544 37,000  Level Washington Center
08:16AM 34.1997 -78.7281 39° Northeast 480 552 37,000  Level Washington Center
08:17AM 34.3044 -78.6264 39° Northeast 480 552 37,000  Level Washington Center
08:18AM 34.4114 -78.5222 39° Northeast 480 552 37,000  Level Washington Center
08:19AM 34.5161 -78.4175 39° Northeast 480 552 37,000  Level Washington Center
08:20AM 34.6208 -78.3150 39° Northeast 480 552 37,000  Level Washington Center
08:21AM 34.7253 -78.2075 40° Northeast 480 552 37,000  Level Washington Center
08:22AM 34.8106 -78.1267 38° Northeast 480 552 37,000  Level Washington Center
08:23AM 34.9236 -78.0061 41° Northeast 480 552 37,000  Level Washington Center
08:24AM 35.0428 -77.8881 39° Northeast 488 562 37,000  Level Washington Center
08:25AM 35.1469 -77.7817 40° Northeast 494 568 37,000  Level Washington Center
08:26AM 35.2575 -77.6728 39° Northeast 500 575 37,100  Climbing Washington Center
08:27AM 35.3658 -77.5608 40° Northeast 500 575 37,100 -60 Level Washington Center
08:28AM 35.4800 -77.4617 35° Northeast 500 575 37,000 -60 Descending Washington Center
08:29AM 35.5942 -77.3622 35° Northeast 500 575 37,000  Level Washington Center
08:30AM 35.7083 -77.2675 34° Northeast 494 568 37,000  Level Washington Center
08:31AM 35.8181 -77.1647 37° Northeast 494 568 37,000  Level Washington Center
08:32AM 35.9319 -77.0772 32° Northeast 494 568 37,000  Level Washington Center
08:33AM 36.0478 -76.9947 30° Northeast 482 555 37,000  Level Washington Center
08:34AM 36.1633 -76.9119 30° Northeast 482 555 37,000  Level Washington Center
08:35AM 36.2811 -76.8236 31° Northeast 482 555 37,000  Level Washington Center
08:36AM 36.3967 -76.7378 31° Northeast 482 555 37,000  Level Washington Center
08:37AM 36.5122 -76.6514 31° Northeast 477 549 37,000  Level Washington Center
08:38AM 36.6300 -76.5625 31° Northeast 477 549 37,000  Level Washington Center
08:39AM 36.7433 -76.4733 32° Northeast 477 549 37,000  Level Washington Center
08:40AM 36.8606 -76.3864 31° Northeast 477 549 37,100  Climbing Washington Center
08:41AM 36.9781 -76.2992 31° Northeast 477 549 37,000 -60 Descending Washington Center
08:42AM 37.0953 -76.2064 32° Northeast 482 555 37,000  Level Washington Center
08:43AM 37.1958 -76.1367 29° Northeast 488 562 37,000  Level Washington Center
08:44AM 37.3233 -76.0383 32° Northeast 493 567 37,000  Level Washington Center
08:45AM 37.4406 -75.9475 32° Northeast 493 567 37,000  Level Washington Center
08:46AM 37.5617 -75.8564 31° Northeast 493 567 37,000  Level Washington Center
08:47AM 37.6786 -75.7625 32° Northeast 493 567 37,000  Level Washington Center
08:48AM 37.7978 -75.6733 31° Northeast 493 567 37,000  Level Washington Center
08:49AM 37.9167 -75.5811 31° Northeast 493 567 37,000  Level Washington Center
08:50AM 38.0375 -75.4889 31° Northeast 493 567 37,000  Level Washington Center
08:51AM 38.1606 -75.3989 30° Northeast 493 567 37,000  Level Washington Center
08:52AM 38.2875 -75.3219 25° Northeast 493 567 37,000  Level Washington Center
08:53AM 38.4269 -75.2339 26° Northeast 493 567 37,000 -300 Level Washington Center
08:54AM 38.5517 -75.1564 26° Northeast 493 567 36,400 -840 Descending Washington Center
08:55AM 38.6767 -75.0706 28° Northeast 493 567 35,400 -1,080 Descending Washington Center
08:56AM 38.8075 -74.9869 26° Northeast 505 581 34,300 -1,860 Descending Washington Center
08:57AM 38.9383 -74.9058 26° Northeast 513 590 31,700 -2,460 Descending Washington Center
08:58AM 39.0692 -74.8164 28° Northeast 520 598 29,500 -2,100 Descending Washington Center
08:59AM 39.2217 -74.6675 37° Northeast 505 581 26,500 -2,040 Descending New York Center
09:00AM 39.3231 -74.5575 40° Northeast 486 559 24,300 -2,100 Descending New York Center
09:01AM 39.4203 -74.4553 39° Northeast 460 529 22,300 -2,280 Descending New York Center
09:02AM 39.5111 -74.3497 42° Northeast 442 509 19,800 -2,220 Descending New York Center
09:03AM 39.6081 -74.2442 40° Northeast 448 516 18,000 -1,200 Descending New York Center
09:04AM 39.6964 -74.1486 40° Northeast 413 475 17,500 -1,380 Descending New York Center
09:05AM 39.7739 -74.0606 41° Northeast 361 415 15,300 -2,040 Descending New York Center
09:06AM 39.8425 -73.9908 38° Northeast 350 403 13,500 -1,800 Descending New York Center
09:07AM 39.9233 -73.9322 29° Northeast 345 397 11,800 -1,260 Descending New York Center
09:08AM 40.0061 -73.8711 29° Northeast 309 356 11,100 -600 Descending New York Center
09:09AM 40.0742 -73.8253 27° Northeast 287 330 10,600 -1,200 Descending New York Center
09:10AM 40.1422 -73.7711 31° Northeast 277 319 8,700 -2,340 Descending New York Center
09:11AM 40.2000 -73.7833 351° North 264 304 6,500 -1,800 Descending New York TRACON
09:12AM 40.2667 -73.8167 339° North 233 268 5,600 -1,020 Descending New York TRACON
09:13AM 40.3167 -73.8333 346° North 225 259 4,500 -1,080 Descending New York TRACON
09:15AM 40.4500 -73.8833 344° North 239 275 2,500 -900 Descending New York TRACON
09:16AM 40.5000 -73.8667 14° North 213 245 1,900 -300 Descending New York TRACON
09:17AM 40.5500 -73.8333 27° Northeast 202 232 1,900 -420 Level New York TRACON
09:18AM 40.5833 -73.8000 37° Northeast 156 180 1,100 -900 Descending New York TRACON
09:19AM 40.6167 -73.7833 21° North 133 153 200 3,060 Descending New York TRACON
09:21AM 40.7083 -73.7167 29° Northeast 160 184 11,000 4,680 Climbing New York Center